createdAt,value
2023-05-15T00:02:39.911Z,100011.88
2023-05-15T00:07:41.206Z,100002.75
2023-05-15T00:12:42.435Z,100012.03
2023-05-15T00:17:43.679Z,100013.13
2023-05-15T00:22:44.880Z,100001.63
2023-05-15T00:27:46.258Z,99996.34
2023-05-15T00:32:47.466Z,100001.28
2023-05-15T00:37:48.662Z,100010.41
2023-05-15T00:42:49.864Z,99996.94
2023-05-15T00:47:51.088Z,99999.56
2023-05-15T00:52:52.249Z,99985.63
2023-05-15T00:57:53.407Z,99977.38
2023-05-15T01:02:54.662Z,99984.63
2023-05-15T01:07:55.947Z,99975.28
2023-05-15T01:12:57.112Z,99989.81
2023-05-15T01:17:58.347Z,99979.25
2023-05-15T01:23:00.061Z,99982.63
2023-05-15T01:28:01.290Z,99991.88
2023-05-15T01:33:02.473Z,99995.53
2023-05-15T01:38:03.698Z,99997.66
2023-05-15T01:43:04.895Z,99996.22
2023-05-15T01:48:06.053Z,99989.84
2023-05-15T01:53:07.286Z,99988.34
2023-05-15T01:58:08.512Z,99991.56
2023-05-15T02:03:09.894Z,99991.81
2023-05-15T02:08:11.149Z,100003.50
2023-05-15T02:13:12.363Z,99992.03
2023-05-15T02:18:13.596Z,99999.69
2023-05-15T02:23:14.762Z,99993.47
2023-05-15T02:28:15.916Z,99996.56
2023-05-15T02:33:17.225Z,100000.50
2023-05-15T02:38:18.433Z,99993.22
2023-05-15T02:43:20.223Z,99993.28
2023-05-15T02:48:21.396Z,100003.84
2023-05-15T02:53:22.920Z,100012.41
2023-05-15T02:58:24.152Z,100010.56
2023-05-15T03:03:25.327Z,100007.63
2023-05-15T03:08:26.512Z,100001.75
2023-05-15T03:13:27.695Z,99998.97
2023-05-15T03:18:28.979Z,100005.97
2023-05-15T03:23:31.935Z,100001.50
2023-05-15T03:28:33.131Z,100003.38
2023-05-15T03:33:34.330Z,100007.09
2023-05-15T03:38:35.523Z,99999.34
2023-05-15T03:43:36.698Z,100003.84
2023-05-15T03:48:37.927Z,99996.41
2023-05-15T03:53:39.119Z,100003.53
2023-05-15T03:58:40.407Z,100002.44
2023-05-15T04:03:41.616Z,100005.25
2023-05-15T04:08:42.817Z,100007.25
2023-05-15T04:13:44.011Z,100010.22
2023-05-15T04:18:45.234Z,100008.94
2023-05-15T04:23:46.434Z,100009.25
2023-05-15T04:29:00.191Z,100005.69
2023-05-15T04:34:05.039Z,100010.50
2023-05-15T04:39:06.975Z,100011.13
2023-05-15T04:44:08.676Z,100012.19
2023-05-15T04:49:09.894Z,100007.25
2023-05-15T04:54:11.128Z,100009.25
2023-05-15T04:59:13.335Z,100004.78
2023-05-15T05:04:14.750Z,100008.94
2023-05-15T05:09:16.171Z,100014.81
2023-05-15T05:14:17.410Z,100010.81
2023-05-15T05:19:18.624Z,100018.41
2023-05-15T05:24:19.856Z,100023.03
2023-05-15T05:29:21.217Z,100028.59
2023-05-15T05:34:22.399Z,100028.72
2023-05-15T05:39:23.638Z,100026.09
2023-05-15T05:44:25.762Z,100030.00
2023-05-15T05:49:26.985Z,100031.72
2023-05-15T05:54:28.155Z,100034.06
2023-05-15T05:59:29.755Z,100036.38
2023-05-15T06:04:30.939Z,100027.56
2023-05-15T06:09:32.620Z,100026.31
2023-05-15T06:14:33.872Z,100041.53
2023-05-15T06:19:35.192Z,100037.03
2023-05-15T06:24:36.393Z,100038.28
2023-05-15T06:29:37.752Z,100041.69
2023-05-15T06:34:38.931Z,100035.81
2023-05-15T06:39:40.237Z,100045.25
2023-05-15T06:44:41.487Z,100040.75
2023-05-15T06:49:42.698Z,100044.03
2023-05-15T06:54:43.954Z,100048.25
2023-05-15T06:59:45.162Z,100054.28
2023-05-15T07:04:46.487Z,100048.56
2023-05-15T07:09:50.161Z,100071.06
2023-05-15T07:14:51.309Z,100071.16
2023-05-15T07:19:52.591Z,100068.03
2023-05-15T07:24:53.790Z,100076.41
2023-05-15T07:29:54.988Z,100077.31
2023-05-15T07:34:56.233Z,100071.41
2023-05-15T07:39:57.499Z,100067.56
2023-05-15T07:44:58.717Z,100068.19
2023-05-15T07:50:00.001Z,100063.38
2023-05-15T07:55:01.295Z,100061.34
2023-05-15T08:00:07.189Z,100064.78
2023-05-15T08:05:08.341Z,100066.03
2023-05-15T08:10:09.514Z,100068.66
2023-05-15T08:15:10.693Z,100069.91
2023-05-15T08:20:12.020Z,100065.44
2023-05-15T08:25:13.255Z,100069.97
2023-05-15T08:30:14.424Z,100069.31
2023-05-15T08:35:15.619Z,100068.22
2023-05-15T08:40:17.022Z,100065.41
2023-05-15T08:45:20.323Z,100073.47
2023-05-15T08:50:21.593Z,100068.13
2023-05-15T08:55:23.935Z,100061.31
2023-05-15T09:00:26.636Z,100063.31
2023-05-15T09:05:27.914Z,100066.03
2023-05-15T09:10:29.226Z,100064.28
2023-05-15T09:15:30.589Z,100074.97
2023-05-15T09:20:31.855Z,100072.00
2023-05-15T09:25:33.462Z,100071.06
2023-05-15T09:30:34.802Z,100069.78
2023-05-15T09:35:36.105Z,100066.06
2023-05-15T09:40:37.344Z,100062.69
2023-05-15T09:45:38.571Z,100063.91
2023-05-15T09:50:39.856Z,100063.00
2023-05-15T09:55:41.053Z,100060.72
2023-05-15T10:00:47.716Z,100050.69
2023-05-15T10:05:50.721Z,100045.38
2023-05-15T10:10:53.854Z,100058.34
2023-05-15T10:15:55.044Z,100041.69
2023-05-15T10:20:58.003Z,100048.63
2023-05-15T10:25:59.259Z,100038.34
2023-05-15T10:31:01.345Z,100035.81
2023-05-15T10:36:02.651Z,100030.38
2023-05-15T10:41:16.135Z,100022.56
2023-05-15T10:46:18.727Z,100019.22
2023-05-15T10:51:19.991Z,100008.72
2023-05-15T10:56:21.403Z,99994.72
2023-05-15T11:01:22.623Z,99996.06
2023-05-15T11:06:23.836Z,99990.16
2023-05-15T11:11:25.043Z,99978.91
2023-05-15T11:16:26.397Z,99987.44
2023-05-15T11:21:28.018Z,99989.41
2023-05-15T11:26:29.234Z,99971.03
2023-05-15T11:31:31.008Z,99967.13
2023-05-15T11:36:35.171Z,99964.44
2023-05-15T11:41:37.477Z,99965.81
2023-05-15T11:46:38.707Z,99955.66
2023-05-15T11:51:43.100Z,99946.28
2023-05-15T11:56:44.558Z,99935.16
2023-05-15T12:01:47.697Z,99944.19
2023-05-15T12:06:49.515Z,99933.78
2023-05-15T12:11:50.815Z,99925.06
2023-05-15T12:16:53.374Z,99919.13
2023-05-15T12:21:54.655Z,99928.44
2023-05-15T12:26:57.472Z,99926.50
2023-05-15T12:31:58.970Z,99914.28
2023-05-15T12:37:00.341Z,99925.72
2023-05-15T12:42:01.524Z,99914.22
2023-05-15T12:47:02.807Z,99909.28
2023-05-15T12:52:04.054Z,99909.25
2023-05-15T12:57:05.238Z,99905.38
2023-05-15T13:02:06.423Z,99901.81
2023-05-15T13:07:08.032Z,99902.66
2023-05-15T13:12:09.228Z,99892.84
2023-05-15T13:17:10.476Z,99897.16
2023-05-15T13:22:11.884Z,99890.41
2023-05-15T13:27:13.188Z,99897.28
2023-05-15T13:32:14.455Z,99883.19
2023-05-15T13:37:15.736Z,99888.97
2023-05-15T13:42:17.002Z,99900.09
2023-05-15T13:47:18.259Z,99836.09
2023-05-15T13:52:19.638Z,99879.25
2023-05-15T13:57:20.917Z,99880.06
2023-05-15T14:02:23.485Z,99879.19
2023-05-15T14:07:24.668Z,99883.56
2023-05-15T14:12:25.971Z,99873.13
2023-05-15T14:17:28.012Z,99882.28
2023-05-15T14:22:29.254Z,99880.34
2023-05-15T14:27:30.509Z,99875.47
2023-05-15T14:32:31.721Z,99883.13
2023-05-15T14:37:32.920Z,99884.91
2023-05-15T14:42:34.204Z,99887.75
2023-05-15T14:47:35.575Z,99882.31
2023-05-15T14:52:36.812Z,99872.44
2023-05-15T14:57:38.074Z,99879.44
2023-05-15T15:02:39.431Z,99883.03
2023-05-15T15:07:41.004Z,99895.53
2023-05-15T15:12:42.167Z,99900.91
2023-05-15T15:17:43.638Z,99903.22
2023-05-15T15:22:44.919Z,99897.13
2023-05-15T15:27:46.325Z,99908.41
2023-05-15T15:32:47.622Z,99916.47
2023-05-15T15:37:48.882Z,99926.75
2023-05-15T15:42:50.069Z,99920.63
2023-05-15T15:47:51.469Z,99920.34
2023-05-15T15:52:52.983Z,99937.75
2023-05-15T15:57:54.245Z,99937.44
2023-05-15T16:02:55.527Z,99939.38
2023-05-15T16:07:56.838Z,99933.81
2023-05-15T16:12:58.053Z,99938.19
2023-05-15T16:17:59.403Z,99932.59
2023-05-15T16:23:00.929Z,99950.31
2023-05-15T16:28:02.178Z,99951.63
2023-05-15T16:33:03.428Z,99960.22
2023-05-15T16:38:04.746Z,99963.28
2023-05-15T16:43:06.116Z,99970.44
2023-05-15T16:48:07.495Z,99971.22
2023-05-15T16:53:09.022Z,99972.19
2023-05-15T16:58:10.481Z,99966.97
2023-05-15T17:03:12.867Z,99974.75
2023-05-15T17:08:14.161Z,99978.81
2023-05-15T17:13:15.772Z,99979.31
2023-05-15T17:18:16.999Z,99985.94
2023-05-15T17:23:18.133Z,99988.78
2023-05-15T17:28:19.329Z,99994.19
2023-05-15T17:33:20.485Z,99992.84
2023-05-15T17:38:21.646Z,99997.56
2023-05-15T17:43:22.940Z,99999.50
2023-05-15T17:48:24.166Z,100001.84
2023-05-15T17:53:25.418Z,100004.59
2023-05-15T17:58:26.838Z,100007.91
2023-05-15T18:03:28.201Z,100011.25
2023-05-15T18:08:30.682Z,100029.66
2023-05-15T18:13:31.955Z,100025.72
2023-05-15T18:18:33.176Z,100032.75
2023-05-15T18:23:34.423Z,100048.44
2023-05-15T18:28:35.596Z,100046.31
2023-05-15T18:33:36.932Z,100050.81
2023-05-15T18:38:38.117Z,100050.81
2023-05-15T18:43:39.285Z,100065.00
2023-05-15T18:48:40.479Z,100057.91
2023-05-15T18:53:41.673Z,100070.81
2023-05-15T18:58:42.884Z,100066.34
2023-05-15T19:03:44.163Z,100070.53
2023-05-15T19:08:45.369Z,100082.94
2023-05-15T19:13:46.628Z,100081.69
2023-05-15T19:18:47.798Z,100092.53
2023-05-15T19:23:49.009Z,100097.16
2023-05-15T19:28:50.197Z,100103.84
2023-05-15T19:33:51.330Z,100115.22
2023-05-15T19:38:52.659Z,100121.00
2023-05-15T19:43:53.830Z,100123.38
2023-05-15T19:48:55.077Z,100125.72
2023-05-15T19:53:56.692Z,100143.56
2023-05-15T19:58:59.650Z,100151.66
2023-05-15T20:04:00.873Z,100156.38
2023-05-15T20:09:02.151Z,100157.59
2023-05-15T20:14:03.393Z,100163.00
2023-05-15T20:19:04.978Z,100167.34
2023-05-15T20:24:06.894Z,100169.09
2023-05-15T20:29:08.184Z,100175.59
2023-05-15T20:34:09.778Z,100178.56
2023-05-15T20:39:11.450Z,100174.22
2023-05-15T20:44:12.641Z,100172.69
2023-05-15T20:49:14.467Z,100186.50
2023-05-15T20:54:16.087Z,100182.78
2023-05-15T20:59:17.297Z,100193.66
2023-05-15T21:04:18.629Z,100190.09
2023-05-15T21:09:20.008Z,100191.00
2023-05-15T21:14:21.149Z,100193.19
2023-05-15T21:19:22.439Z,100200.50
2023-05-15T21:24:23.661Z,100197.53
2023-05-15T21:29:24.859Z,100190.41
2023-05-15T21:34:26.177Z,100195.03
2023-05-15T21:39:27.369Z,100200.13
2023-05-15T21:44:28.788Z,100200.44
2023-05-15T21:49:29.964Z,100211.28
2023-05-15T21:54:31.162Z,100216.56
2023-05-15T21:59:32.369Z,100211.59
2023-05-15T22:04:33.586Z,100211.59
2023-05-15T22:09:34.976Z,100218.44
2023-05-15T22:14:37.745Z,100211.28
2023-05-15T22:19:45.784Z,100206.59
2023-05-15T22:24:47.097Z,100213.09
2023-05-15T22:29:48.302Z,100218.75
2023-05-15T22:34:49.500Z,100224.75
2023-05-15T22:39:50.741Z,100224.41
2023-05-15T22:44:51.993Z,100232.72
2023-05-15T22:49:53.154Z,100228.38
2023-05-15T22:54:54.425Z,100231.78
2023-05-15T22:59:55.610Z,100230.66
2023-05-15T23:04:56.839Z,100233.41
2023-05-15T23:09:58.036Z,100235.94
2023-05-15T23:14:59.224Z,100233.97
2023-05-15T23:20:00.745Z,100232.19
2023-05-15T23:25:01.973Z,100226.00
2023-05-15T23:30:03.272Z,100228.66
2023-05-15T23:35:04.437Z,100232.19
2023-05-15T23:40:05.988Z,100235.16
2023-05-15T23:45:07.250Z,100236.06
2023-05-15T23:50:08.585Z,100235.16
2023-05-15T23:55:09.792Z,100238.97
